Time;durP1;ratioP1;P1;durP2;ratioP2;P2;SDS_P1;SDS_P2;PMS_P1;PMS_P2;Temp;Humidity;BMP_temperature;BMP_pressure;BME280_temperature;BME280_humidity;BME280_pressure;Samples;Min_cycle;Max_cycle;Signal;HPM_P1;HPM_P2
2023/05/11 00:01:52;;;;;;;15.90;14.20;;;16.30;1.00;;;;;;5044848;28;20510;-60
2023/05/11 00:04:18;;;;;;;14.88;13.48;;;16.30;1.00;;;;;;5032862;28;20021;-60
2023/05/11 00:06:43;;;;;;;15.65;14.00;;;16.30;1.00;;;;;;5034065;28;20193;-60
2023/05/11 00:09:10;;;;;;;16.88;15.18;;;16.30;1.00;;;;;;5032940;28;20061;-60
2023/05/11 00:11:36;;;;;;;15.95;14.35;;;16.30;1.00;;;;;;5034065;28;20018;-60
2023/05/11 00:14:02;;;;;;;16.30;14.70;;;16.30;1.00;;;;;;5034130;28;20047;-61
2023/05/11 00:16:28;;;;;;;16.75;14.98;;;16.30;1.00;;;;;;5034197;28;20039;-60
2023/05/11 00:18:53;;;;;;;14.82;13.23;;;16.30;1.00;;;;;;5033959;28;20060;-60
2023/05/11 00:21:21;;;;;;;16.95;15.18;;;16.30;1.00;;;;;;5033845;28;20494;-60
2023/05/11 00:23:47;;;;;;;15.32;13.73;;;16.30;1.00;;;;;;5033944;28;20109;-60
2023/05/11 00:26:13;;;;;;;16.02;14.13;;;16.30;1.00;;;;;;5033976;28;20034;-60
2023/05/11 00:28:38;;;;;;;16.02;14.43;;;16.30;1.00;;;;;;5020118;28;20029;-61
2023/05/11 00:31:04;;;;;;;15.70;14.15;;;16.30;1.00;;;;;;5033815;28;20383;-61
2023/05/11 00:33:30;;;;;;;15.32;13.80;;;16.30;1.00;;;;;;5033055;28;20510;-60
2023/05/11 00:35:56;;;;;;;15.25;13.57;;;16.30;1.00;;;;;;5032240;28;20510;-60
2023/05/11 00:38:22;;;;;;;16.00;14.30;;;16.30;1.00;;;;;;5033551;28;20548;-60
2023/05/11 00:40:48;;;;;;;17.00;15.25;;;16.30;1.00;;;;;;5033319;28;20144;-60
2023/05/11 00:43:14;;;;;;;15.52;13.93;;;16.30;1.00;;;;;;5033645;28;20116;-60
2023/05/11 00:45:40;;;;;;;15.38;13.88;;;16.30;1.00;;;;;;5031468;28;20447;-60
2023/05/11 00:48:06;;;;;;;15.38;13.73;;;16.30;1.00;;;;;;5032202;28;20048;-60
2023/05/11 00:50:32;;;;;;;17.10;14.68;;;16.30;1.00;;;;;;5033353;28;20034;-60
2023/05/11 00:52:58;;;;;;;16.42;14.10;;;16.30;1.00;;;;;;5033669;28;20097;-60
2023/05/11 00:55:25;;;;;;;13.93;12.57;;;16.30;1.00;;;;;;5033219;28;20032;-60
2023/05/11 00:57:50;;;;;;;12.85;11.48;;;16.30;1.00;;;;;;5043468;28;20013;-60
2023/05/11 01:00:16;;;;;;;13.48;12.07;;;16.20;1.00;;;;;;5050578;28;20110;-60
2023/05/11 01:02:42;;;;;;;12.60;11.20;;;16.20;1.00;;;;;;5047439;28;20535;-60
2023/05/11 01:05:08;;;;;;;12.02;10.85;;;16.30;1.00;;;;;;5035825;28;20037;-60
2023/05/11 01:07:48;;;;;;;11.95;10.60;;;16.20;1.00;;;;;;5043082;28;20148;-60
2023/05/11 01:10:31;;;;;;;11.70;10.52;;;16.30;1.00;;;;;;5031285;28;20049;-61
2023/05/11 01:13:29;;;;;;;12.18;11.02;;;16.30;1.00;;;;;;5033102;28;20482;-60
2023/05/11 01:15:55;;;;;;;12.32;11.07;;;16.20;1.00;;;;;;5053616;28;20116;-60
2023/05/11 01:18:48;;;;;;;13.20;11.32;;;16.20;1.00;;;;;;5032893;28;20181;-60
2023/05/11 01:21:16;;;;;;;12.30;10.93;;;16.10;1.00;;;;;;5032725;28;20056;-60
2023/05/11 01:23:43;;;;;;;13.25;11.82;;;16.20;1.00;;;;;;5032475;28;20132;-60
2023/05/11 01:26:31;;;;;;;13.25;11.88;;;16.20;1.00;;;;;;5032119;28;20049;-60
2023/05/11 01:29:02;;;;;;;15.68;13.43;;;16.20;1.00;;;;;;5032409;28;20397;-61
2023/05/11 01:31:33;;;;;;;14.48;13.07;;;16.10;1.00;;;;;;5042482;28;20426;-61
2023/05/11 01:34:08;;;;;;;14.55;13.07;;;16.10;1.00;;;;;;5035710;28;20032;-60
2023/05/11 01:36:41;;;;;;;16.63;13.93;;;16.10;1.00;;;;;;5032184;28;20047;-60
2023/05/11 01:39:10;;;;;;;15.50;13.93;;;16.10;1.00;;;;;;5032057;28;20586;-60
2023/05/11 01:41:39;;;;;;;14.70;13.10;;;16.00;1.00;;;;;;5032628;28;20516;-60
2023/05/11 01:44:09;;;;;;;16.10;14.50;;;16.00;1.00;;;;;;5032941;28;20032;-60
2023/05/11 01:46:34;;;;;;;14.23;12.52;;;16.10;1.00;;;;;;5035540;28;20030;-60
2023/05/11 01:49:04;;;;;;;13.25;11.85;;;16.10;1.00;;;;;;5036905;28;20029;-60
2023/05/11 01:51:35;;;;;;;15.52;13.23;;;16.10;1.00;;;;;;5036833;28;20037;-60
2023/05/11 01:54:02;;;;;;;13.50;12.07;;;16.10;1.00;;;;;;5037070;28;20044;-61
2023/05/11 01:56:29;;;;;;;13.10;11.80;;;16.10;1.00;;;;;;5036504;28;20033;-60
2023/05/11 01:58:57;;;;;;;12.18;10.85;;;16.10;1.00;;;;;;5036532;28;20490;-60
2023/05/11 02:01:23;;;;;;;12.55;9.55;;;16.00;1.00;;;;;;5036453;28;20096;-61
2023/05/11 02:03:50;;;;;;;11.32;10.23;;;16.10;1.00;;;;;;5036524;28;20021;-60
2023/05/11 02:06:17;;;;;;;11.52;10.40;;;16.10;1.00;;;;;;5050436;28;20391;-60
2023/05/11 02:08:45;;;;;;;10.85;9.65;;;16.10;1.00;;;;;;5036468;28;20437;-61
2023/05/11 02:11:13;;;;;;;11.02;9.70;;;16.10;1.00;;;;;;5036387;28;20120;-60
2023/05/11 02:13:41;;;;;;;10.75;9.65;;;16.00;1.00;;;;;;5035040;28;20549;-61
2023/05/11 02:16:07;;;;;;;10.88;9.25;;;16.00;1.00;;;;;;5036385;28;20071;-60
2023/05/11 02:18:34;;;;;;;9.15;8.25;;;16.10;1.00;;;;;;5036166;28;20033;-60
2023/05/11 02:21:01;;;;;;;9.60;8.55;;;16.10;1.00;;;;;;5027079;28;20030;-60
2023/05/11 02:23:30;;;;;;;9.13;8.18;;;16.10;1.00;;;;;;5033356;28;20430;-60
2023/05/11 02:25:56;;;;;;;10.15;7.55;;;16.10;1.00;;;;;;5036044;28;20460;-60
2023/05/11 02:28:22;;;;;;;8.88;7.35;;;16.10;1.00;;;;;;5036203;28;20096;-60
2023/05/11 02:30:52;;;;;;;8.45;7.55;;;16.10;1.00;;;;;;5036040;28;20183;-60
2023/05/11 02:33:33;;;;;;;7.85;7.07;;;16.10;1.00;;;;;;5036004;28;20060;-60
2023/05/11 02:36:01;;;;;;;8.77;7.25;;;16.10;1.00;;;;;;5036076;28;20041;-61
2023/05/11 02:38:33;;;;;;;6.85;6.15;;;16.10;1.00;;;;;;5036069;28;20025;-60
2023/05/11 02:41:03;;;;;;;6.35;5.75;;;16.10;1.00;;;;;;5035818;28;20483;-60
2023/05/11 02:43:33;;;;;;;8.20;6.55;;;16.10;1.00;;;;;;5035874;28;20025;-61
2023/05/11 02:46:03;;;;;;;6.40;5.63;;;16.10;1.00;;;;;;5036003;28;20441;-60
2023/05/11 02:48:39;;;;;;;7.57;6.88;;;16.00;1.00;;;;;;5035624;28;20025;-60
2023/05/11 02:51:08;;;;;;;7.75;7.00;;;16.00;1.00;;;;;;5035799;28;20057;-60
2023/05/11 02:53:36;;;;;;;7.22;6.38;;;16.00;1.00;;;;;;5035917;28;20108;-60
2023/05/11 02:56:02;;;;;;;7.03;6.32;;;15.90;1.00;;;;;;5033916;28;20136;-60
2023/05/11 02:58:29;;;;;;;7.60;6.80;;;16.00;1.00;;;;;;5034420;28;20060;-61
2023/05/11 03:00:55;;;;;;;6.53;5.85;;;15.90;1.00;;;;;;5035443;28;20497;-61
2023/05/11 03:03:21;;;;;;;7.30;6.25;;;16.00;1.00;;;;;;5035524;28;20048;-61
2023/05/11 03:05:46;;;;;;;7.88;7.07;;;16.00;1.00;;;;;;5046524;28;20037;-60
2023/05/11 03:08:12;;;;;;;7.22;6.20;;;16.00;1.00;;;;;;5037855;28;20025;-61
2023/05/11 03:10:38;;;;;;;7.95;6.70;;;16.00;1.00;;;;;;5035291;28;20017;-60
2023/05/11 03:13:05;;;;;;;7.15;6.45;;;16.00;1.00;;;;;;5035270;28;20032;-61
2023/05/11 03:15:31;;;;;;;7.25;6.43;;;16.00;1.00;;;;;;5033955;28;20418;-61
2023/05/11 03:17:59;;;;;;;7.40;6.30;;;16.00;1.00;;;;;;5035125;28;20113;-60
2023/05/11 03:20:26;;;;;;;7.82;6.82;;;16.00;1.00;;;;;;5034956;28;20472;-60
2023/05/11 03:22:52;;;;;;;6.60;6.00;;;15.90;1.00;;;;;;5035374;28;20052;-60
2023/05/11 03:25:19;;;;;;;9.43;6.80;;;15.90;1.00;;;;;;5033579;28;20120;-60
2023/05/11 03:27:45;;;;;;;8.05;6.95;;;15.90;1.00;;;;;;5035091;28;20041;-60
2023/05/11 03:30:13;;;;;;;7.82;7.10;;;15.80;1.00;;;;;;5034796;28;20103;-60
2023/05/11 03:32:39;;;;;;;7.90;7.10;;;15.80;1.00;;;;;;5033717;28;20057;-60
2023/05/11 03:35:05;;;;;;;8.50;7.28;;;15.80;1.00;;;;;;5034711;28;20091;-60
2023/05/11 03:37:32;;;;;;;7.65;6.95;;;15.80;1.00;;;;;;5034745;28;20471;-60
2023/05/11 03:40:00;;;;;;;7.28;6.53;;;15.80;1.00;;;;;;5034810;28;20061;-60
2023/05/11 03:42:27;;;;;;;6.88;5.63;;;15.90;1.00;;;;;;5033410;28;20029;-60
2023/05/11 03:44:57;;;;;;;6.13;5.53;;;15.80;1.00;;;;;;5034663;28;20460;-60
2023/05/11 03:47:26;;;;;;;6.40;5.80;;;15.80;1.00;;;;;;5034642;28;20021;-61
2023/05/11 03:49:52;;;;;;;5.60;5.07;;;15.80;1.00;;;;;;5034538;28;20464;-60
2023/05/11 03:52:20;;;;;;;6.15;5.55;;;15.80;1.00;;;;;;5034365;28;20545;-60
2023/05/11 03:54:45;;;;;;;5.55;4.97;;;15.80;1.00;;;;;;5034300;28;20025;-60
2023/05/11 03:57:13;;;;;;;6.20;5.63;;;15.90;1.00;;;;;;5034028;28;20026;-61
2023/05/11 03:59:39;;;;;;;6.22;5.43;;;15.90;1.00;;;;;;5034140;28;20430;-60
2023/05/11 04:02:05;;;;;;;6.32;5.72;;;15.90;1.00;;;;;;5033592;28;20071;-59
2023/05/11 04:04:31;;;;;;;5.00;4.50;;;15.90;1.00;;;;;;5034516;28;20328;-60
2023/05/11 04:06:57;;;;;;;6.25;5.65;;;15.90;1.00;;;;;;5023621;28;20140;-60
2023/05/11 04:09:23;;;;;;;5.75;5.25;;;15.80;1.00;;;;;;5032083;28;20368;-60
2023/05/11 04:11:49;;;;;;;5.88;5.20;;;15.80;1.00;;;;;;5033261;28;20040;-60
2023/05/11 04:14:21;;;;;;;5.57;5.07;;;15.80;1.00;;;;;;5033996;28;20029;-60
2023/05/11 04:16:47;;;;;;;5.75;4.57;;;15.80;1.00;;;;;;5034082;28;20034;-60
2023/05/11 04:19:13;;;;;;;5.68;4.35;;;15.80;1.00;;;;;;5034111;28;20029;-60
2023/05/11 04:21:38;;;;;;;5.88;4.03;;;15.80;1.00;;;;;;5034003;28;20503;-60
2023/05/11 04:24:05;;;;;;;4.97;4.18;;;15.80;1.00;;;;;;5033781;28;20113;-60
2023/05/11 04:26:30;;;;;;;4.40;3.92;;;15.80;1.00;;;;;;5033791;28;20029;-60
2023/05/11 04:28:56;;;;;;;6.32;4.32;;;15.80;1.00;;;;;;5033791;28;20018;-60
2023/05/11 04:31:22;;;;;;;6.80;5.03;;;15.80;1.00;;;;;;5033661;28;20036;-60
2023/05/11 04:33:47;;;;;;;4.95;3.97;;;15.80;1.00;;;;;;5034333;28;20044;-60
2023/05/11 04:36:13;;;;;;;5.03;4.53;;;15.70;1.00;;;;;;5033387;28;20029;-60
2023/05/11 04:38:39;;;;;;;6.78;4.13;;;15.70;1.00;;;;;;5033587;28;20034;-60
2023/05/11 04:41:05;;;;;;;5.90;5.05;;;15.70;1.00;;;;;;5033268;28;20586;-60
2023/05/11 04:43:31;;;;;;;5.30;4.47;;;15.80;1.00;;;;;;5033551;28;20013;-61
2023/05/11 04:45:58;;;;;;;6.07;4.70;;;15.80;1.00;;;;;;5033734;28;20150;-60
2023/05/11 04:48:25;;;;;;;4.97;4.50;;;15.80;1.00;;;;;;5019750;28;20044;-60
2023/05/11 04:50:51;;;;;;;5.55;5.00;;;15.80;1.00;;;;;;5033458;28;20107;-62
2023/05/11 04:53:16;;;;;;;5.03;4.53;;;15.80;1.00;;;;;;5033392;28;20064;-61
2023/05/11 04:55:42;;;;;;;6.07;4.40;;;15.80;1.00;;;;;;5033708;28;20448;-60
2023/05/11 04:58:08;;;;;;;6.15;4.75;;;15.80;1.00;;;;;;5033494;28;20021;-61
2023/05/11 05:00:35;;;;;;;5.20;4.70;;;15.80;1.00;;;;;;5033733;28;20037;-61
2023/05/11 05:03:01;;;;;;;6.35;5.22;;;15.90;1.00;;;;;;5033159;28;20037;-60
2023/05/11 05:05:27;;;;;;;7.13;5.43;;;15.80;1.00;;;;;;5041703;28;20037;-60
2023/05/11 05:07:52;;;;;;;6.07;5.50;;;15.80;1.00;;;;;;5037157;28;20022;-61
2023/05/11 05:10:18;;;;;;;7.43;5.50;;;15.80;1.00;;;;;;5033157;28;20068;-61
2023/05/11 05:12:44;;;;;;;7.63;6.53;;;15.80;1.00;;;;;;5028459;28;20022;-62
2023/05/11 05:15:11;;;;;;;7.15;6.28;;;15.80;1.00;;;;;;5031744;28;20021;-60
2023/05/11 05:17:36;;;;;;;14.82;7.25;;;15.90;1.00;;;;;;5033548;28;20064;-62
2023/05/11 05:20:03;;;;;;;6.97;5.97;;;15.90;1.00;;;;;;5032827;28;20133;-62
2023/05/11 05:22:30;;;;;;;7.55;6.70;;;15.90;1.00;;;;;;5033036;28;20364;-62
2023/05/11 05:24:55;;;;;;;6.72;5.90;;;16.00;1.00;;;;;;5031623;28;20040;-62
2023/05/11 05:27:21;;;;;;;8.07;5.65;;;16.00;1.00;;;;;;5033188;28;20022;-61
2023/05/11 05:29:46;;;;;;;7.10;6.35;;;16.00;1.00;;;;;;5032905;28;20060;-62
2023/05/11 05:32:12;;;;;;;8.32;6.80;;;16.10;1.00;;;;;;5033056;28;20021;-59
2023/05/11 05:34:38;;;;;;;8.00;6.45;;;16.00;1.00;;;;;;5033019;28;20029;-59
2023/05/11 05:37:03;;;;;;;7.97;5.65;;;16.10;1.00;;;;;;5032746;28;20053;-58
2023/05/11 05:39:29;;;;;;;5.85;5.25;;;16.10;1.00;;;;;;5032782;28;20030;-59
2023/05/11 05:41:55;;;;;;;6.47;5.88;;;16.10;1.00;;;;;;5032567;28;20055;-59
2023/05/11 05:44:21;;;;;;;7.18;5.70;;;16.10;1.00;;;;;;5032672;28;20029;-59
2023/05/11 05:46:46;;;;;;;7.50;5.95;;;16.10;1.00;;;;;;5032740;28;20040;-56
2023/05/11 05:49:12;;;;;;;7.60;5.47;;;16.10;1.00;;;;;;5032621;28;20108;-59
2023/05/11 05:51:38;;;;;;;6.85;6.15;;;16.10;1.00;;;;;;5032975;28;20056;-59
2023/05/11 05:54:03;;;;;;;6.45;5.85;;;16.20;1.00;;;;;;5032882;28;20495;-59
2023/05/11 05:56:30;;;;;;;7.93;6.88;;;16.20;1.00;;;;;;5033105;28;20037;-58
2023/05/11 05:58:56;;;;;;;7.75;6.22;;;16.10;1.00;;;;;;5031219;28;20026;-58
2023/05/11 06:01:22;;;;;;;7.25;6.53;;;16.20;1.00;;;;;;5032651;28;20033;-58
2023/05/11 06:03:47;;;;;;;8.98;7.13;;;16.20;1.00;;;;;;5032610;28;20377;-58
2023/05/11 06:06:13;;;;;;;7.00;6.28;;;16.20;1.00;;;;;;5029461;28;20112;-59
2023/05/11 06:08:39;;;;;;;8.77;6.70;;;16.20;1.00;;;;;;5019231;28;20040;-58
2023/05/11 06:11:04;;;;;;;8.13;7.32;;;16.20;1.00;;;;;;5032526;28;20033;-59
2023/05/11 06:13:30;;;;;;;7.22;6.32;;;16.30;1.00;;;;;;5032406;28;20017;-58
2023/05/11 06:15:56;;;;;;;8.30;6.53;;;16.30;1.00;;;;;;5032461;28;20048;-56
2023/05/11 06:18:21;;;;;;;7.45;6.47;;;16.40;1.00;;;;;;5032596;28;20034;-59
2023/05/11 06:20:47;;;;;;;7.13;6.30;;;16.40;1.00;;;;;;5031344;28;20045;-59
2023/05/11 06:23:13;;;;;;;6.43;5.25;;;16.40;1.00;;;;;;5032274;28;20387;-58
2023/05/11 06:25:38;;;;;;;8.20;6.90;;;16.40;1.00;;;;;;5032366;28;20033;-59
2023/05/11 06:28:04;;;;;;;7.05;6.35;;;16.50;1.00;;;;;;5032349;28;20030;-59
2023/05/11 06:30:30;;;;;;;6.85;6.15;;;16.50;1.00;;;;;;5032530;28;20413;-59
2023/05/11 06:32:56;;;;;;;6.28;5.32;;;16.50;1.00;;;;;;5035086;28;20164;-59
2023/05/11 06:35:22;;;;;;;6.65;5.93;;;16.60;1.00;;;;;;5036239;28;20037;-59
2023/05/11 06:37:48;;;;;;;6.38;5.78;;;16.60;1.00;;;;;;5036281;28;20124;-59
2023/05/11 06:40:16;;;;;;;6.07;5.35;;;16.70;1.00;;;;;;5031239;28;20116;-59
2023/05/11 06:42:42;;;;;;;5.97;5.47;;;16.70;1.00;;;;;;5035828;28;20419;-59
2023/05/11 06:45:08;;;;;;;8.90;5.65;;;16.70;1.00;;;;;;5035740;28;20045;-59
2023/05/11 06:47:34;;;;;;;10.40;6.22;;;16.70;1.00;;;;;;5035962;28;20029;-59
2023/05/11 06:50:00;;;;;;;6.95;6.10;;;16.80;1.00;;;;;;5034460;28;20025;-58
2023/05/11 06:52:26;;;;;;;6.88;5.68;;;16.80;1.00;;;;;;5035811;28;20159;-59
2023/05/11 06:54:52;;;;;;;8.60;6.00;;;16.90;1.00;;;;;;5035591;28;20550;-59
2023/05/11 06:57:17;;;;;;;6.97;5.47;;;16.90;1.00;;;;;;5035565;28;20032;-59
2023/05/11 06:59:43;;;;;;;5.97;5.38;;;16.90;1.00;;;;;;5035485;28;20368;-59
2023/05/11 07:02:09;;;;;;;5.88;4.90;;;16.90;1.00;;;;;;5035751;28;20113;-59
2023/05/11 07:04:36;;;;;;;8.57;5.95;;;17.00;1.00;;;;;;5036732;28;20368;-59
2023/05/11 07:07:02;;;;;;;7.60;6.22;;;17.00;1.00;;;;;;5046368;28;20037;-62
2023/05/11 07:09:28;;;;;;;6.70;5.38;;;17.00;1.00;;;;;;5035416;28;20541;-62
2023/05/11 07:11:54;;;;;;;5.85;5.10;;;17.00;1.00;;;;;;5035256;28;20055;-61
2023/05/11 07:14:20;;;;;;;6.82;6.10;;;17.10;1.00;;;;;;5035545;28;20070;-61
2023/05/11 07:16:45;;;;;;;7.65;6.70;;;17.10;1.00;;;;;;5035395;28;20090;-61
2023/05/11 07:19:11;;;;;;;7.70;5.65;;;17.10;1.00;;;;;;5035392;28;20375;-61
2023/05/11 07:21:37;;;;;;;6.20;4.55;;;17.10;1.00;;;;;;5035138;28;20038;-61
2023/05/11 07:24:03;;;;;;;6.47;4.80;;;17.20;1.00;;;;;;5035856;28;20033;-61
2023/05/11 07:26:28;;;;;;;6.80;4.13;;;17.20;1.00;;;;;;5034880;28;20043;-62
2023/05/11 07:28:54;;;;;;;8.07;5.40;;;17.30;1.00;;;;;;5035103;28;20493;-62
2023/05/11 07:31:20;;;;;;;6.35;5.75;;;17.30;1.00;;;;;;5035111;28;20498;-62
2023/05/11 07:33:46;;;;;;;9.35;7.30;;;17.40;1.00;;;;;;5035033;28;20033;-62
2023/05/11 07:36:11;;;;;;;6.65;5.95;;;17.40;1.00;;;;;;5034839;28;20021;-62
2023/05/11 07:38:37;;;;;;;9.40;5.15;;;17.50;1.00;;;;;;5035009;28;20033;-62
2023/05/11 07:41:03;;;;;;;6.72;6.03;;;17.50;1.00;;;;;;5033250;28;20076;-62
2023/05/11 07:43:29;;;;;;;7.03;6.32;;;17.60;1.00;;;;;;5033443;28;20033;-62
2023/05/11 07:45:54;;;;;;;6.70;5.70;;;17.60;1.00;;;;;;5023176;28;20410;-62
2023/05/11 07:48:21;;;;;;;6.22;5.13;;;17.70;1.00;;;;;;5031443;28;20037;-62
2023/05/11 07:50:48;;;;;;;7.72;5.30;;;17.80;1.00;;;;;;5032069;28;20203;-62
2023/05/11 07:53:14;;;;;;;7.65;6.22;;;17.80;1.00;;;;;;5034565;28;20049;-62
2023/05/11 07:55:40;;;;;;;6.60;5.90;;;17.90;1.00;;;;;;5034645;28;20111;-62
2023/05/11 07:58:05;;;;;;;6.15;5.38;;;17.90;1.00;;;;;;5031969;28;20364;-62
2023/05/11 08:00:32;;;;;;;6.25;5.40;;;18.00;1.00;;;;;;5034429;28;20040;-62
2023/05/11 08:02:57;;;;;;;5.93;4.85;;;18.00;1.00;;;;;;5033033;28;20029;-62
2023/05/11 08:05:23;;;;;;;4.07;3.67;;;18.00;1.00;;;;;;5066149;28;20025;-62
2023/05/11 08:07:49;;;;;;;5.28;4.15;;;18.00;1.00;;;;;;5039866;28;20033;-62
2023/05/11 08:10:14;;;;;;;3.50;2.90;;;18.10;1.00;;;;;;5032897;28;20025;-62
2023/05/11 08:12:40;;;;;;;2.55;2.35;;;18.20;1.00;;;;;;5032945;28;20029;-62
2023/05/11 08:15:06;;;;;;;4.60;2.25;;;18.20;1.00;;;;;;5031978;28;20044;-62
2023/05/11 08:17:34;;;;;;;1.90;1.80;;;18.20;1.00;;;;;;5024660;28;20440;-62
2023/05/11 08:20:00;;;;;;;1.67;1.15;;;18.20;1.00;;;;;;5033881;28;20030;-60
2023/05/11 08:22:26;;;;;;;1.90;1.77;;;18.30;1.00;;;;;;5034266;28;20032;-60
2023/05/11 08:24:51;;;;;;;2.13;2.03;;;18.40;1.00;;;;;;5033733;28;20061;-59
2023/05/11 08:27:17;;;;;;;2.35;1.30;;;18.50;1.00;;;;;;5032592;28;20040;-59
2023/05/11 08:29:43;;;;;;;2.15;2.00;;;18.50;1.00;;;;;;5032570;28;20094;-59
2023/05/11 08:32:09;;;;;;;1.95;1.80;;;18.60;1.00;;;;;;5033740;28;20032;-59
2023/05/11 08:34:34;;;;;;;2.60;2.28;;;18.60;1.00;;;;;;5033541;28;20026;-59
2023/05/11 08:37:00;;;;;;;1.90;1.50;;;18.70;1.00;;;;;;5033012;28;20032;-59
2023/05/11 08:39:27;;;;;;;2.17;1.90;;;18.80;1.00;;;;;;5031021;28;20079;-59
2023/05/11 08:41:56;;;;;;;1.33;1.23;;;18.90;1.00;;;;;;5032947;28;20041;-58
2023/05/11 08:44:25;;;;;;;2.03;1.77;;;18.90;1.00;;;;;;5031805;28;20029;-59
2023/05/11 08:46:52;;;;;;;3.70;2.80;;;18.90;1.00;;;;;;5038153;28;20036;-59
2023/05/11 08:49:19;;;;;;;2.92;2.00;;;18.90;1.00;;;;;;5042326;28;20084;-59
2023/05/11 08:51:46;;;;;;;1.50;1.40;;;19.00;1.00;;;;;;5033348;28;20021;-59
2023/05/11 08:54:12;;;;;;;1.10;1.00;;;19.10;1.00;;;;;;5032976;28;20048;-59
2023/05/11 08:56:40;;;;;;;1.20;0.90;;;19.20;1.00;;;;;;5045971;28;20029;-59
2023/05/11 08:59:06;;;;;;;0.95;0.95;;;19.20;1.00;;;;;;5033249;28;20031;-58
2023/05/11 09:01:34;;;;;;;1.20;1.20;;;19.30;1.00;;;;;;5033055;28;20498;-58
2023/05/11 09:04:01;;;;;;;1.58;1.48;;;19.30;1.00;;;;;;5033091;28;20093;-59
2023/05/11 09:06:28;;;;;;;4.18;1.92;;;19.40;1.00;;;;;;5033039;28;20072;-59
2023/05/11 09:08:54;;;;;;;3.85;2.45;;;19.40;1.00;;;;;;5033234;28;20387;-60
2023/05/11 09:11:21;;;;;;;4.13;2.42;;;19.50;1.00;;;;;;5033167;28;20022;-60
2023/05/11 09:13:47;;;;;;;3.15;2.85;;;19.50;1.00;;;;;;5046993;28;20032;-60
2023/05/11 09:16:13;;;;;;;2.58;2.17;;;19.50;1.00;;;;;;5033394;28;20065;-60
2023/05/11 09:18:46;;;;;;;2.70;2.50;;;19.50;1.00;;;;;;5032857;28;20104;-60
2023/05/11 09:21:12;;;;;;;2.60;2.37;;;19.60;1.00;;;;;;5022956;28;20022;-60
2023/05/11 09:23:39;;;;;;;3.13;2.90;;;19.70;1.00;;;;;;5031870;28;20047;-60
2023/05/11 09:26:15;;;;;;;2.60;2.10;;;19.70;1.00;;;;;;5032973;28;20055;-60
2023/05/11 09:28:53;;;;;;;2.78;2.30;;;19.80;1.00;;;;;;5032903;28;20029;-60
2023/05/11 09:31:40;;;;;;;2.80;2.60;;;19.90;1.00;;;;;;5033320;28;20025;-60
2023/05/11 09:34:20;;;;;;;2.65;2.15;;;20.10;1.00;;;;;;5031577;28;20033;-60
2023/05/11 09:36:55;;;;;;;2.60;2.22;;;20.20;1.00;;;;;;5032742;28;20026;-60
2023/05/11 09:39:34;;;;;;;3.50;2.13;;;20.30;1.00;;;;;;5032809;28;20387;-60
2023/05/11 09:42:20;;;;;;;1.70;1.60;;;20.40;1.00;;;;;;5031481;28;20500;-60
2023/05/11 09:44:46;;;;;;;3.40;3.10;;;20.50;1.00;;;;;;5032698;28;20017;-60
2023/05/11 09:47:13;;;;;;;2.95;2.30;;;20.60;1.00;;;;;;5042685;28;20522;-60
2023/05/11 09:49:44;;;;;;;3.15;2.35;;;20.50;1.00;;;;;;5036901;28;20021;-59
2023/05/11 09:52:15;;;;;;;2.80;2.53;;;20.60;1.00;;;;;;5032979;28;20487;-61
2023/05/11 09:54:45;;;;;;;3.42;3.13;;;20.60;1.00;;;;;;5031935;28;20499;-60
2023/05/11 09:57:23;;;;;;;4.38;3.35;;;20.70;1.00;;;;;;5032708;28;20021;-60
2023/05/11 09:59:49;;;;;;;3.47;3.17;;;20.60;1.00;;;;;;5032546;28;20534;-60
2023/05/11 10:02:22;;;;;;;3.70;3.35;;;20.60;1.00;;;;;;5032607;28;20061;-60
2023/05/11 10:04:50;;;;;;;2.90;2.70;;;20.80;1.00;;;;;;5032474;28;20132;-61
2023/05/11 10:07:31;;;;;;;2.90;2.70;;;20.80;1.00;;;;;;5034321;28;20037;-59
2023/05/11 10:10:02;;;;;;;3.22;2.95;;;20.80;1.00;;;;;;5024452;28;20022;-60
2023/05/11 10:12:29;;;;;;;4.32;3.60;;;20.70;1.00;;;;;;5035125;28;20510;-60
2023/05/11 10:15:00;;;;;;;2.70;2.50;;;20.70;1.00;;;;;;5036424;28;20111;-60
2023/05/11 10:17:27;;;;;;;4.82;3.00;;;20.70;1.00;;;;;;5036341;28;20021;-60
2023/05/11 10:19:55;;;;;;;4.93;2.67;;;20.70;1.00;;;;;;5036223;28;20083;-60
2023/05/11 10:22:23;;;;;;;3.78;2.70;;;20.80;1.00;;;;;;5036134;28;20455;-60
2023/05/11 10:24:50;;;;;;;3.65;3.35;;;20.90;1.00;;;;;;5036112;28;20083;-60
2023/05/11 10:27:17;;;;;;;3.83;3.00;;;20.90;1.00;;;;;;5035942;28;20026;-60
2023/05/11 10:29:43;;;;;;;4.00;3.30;;;20.90;1.00;;;;;;5036325;28;20029;-60
2023/05/11 10:32:10;;;;;;;3.70;3.30;;;20.80;1.00;;;;;;5036276;28;20021;-60
2023/05/11 10:34:38;;;;;;;3.83;3.53;;;20.70;1.00;;;;;;5036069;28;20036;-61
2023/05/11 10:37:05;;;;;;;3.25;2.80;;;20.70;1.00;;;;;;5034859;28;20060;-59
2023/05/11 10:39:31;;;;;;;4.00;3.40;;;20.70;1.00;;;;;;5035865;28;20108;-59
2023/05/11 10:42:32;;;;;;;4.80;3.25;;;20.80;1.00;;;;;;5034371;28;20056;-59
2023/05/11 10:45:16;;;;;;;2.63;2.42;;;20.90;1.00;;;;;;5025594;28;20136;-59
2023/05/11 10:47:52;;;;;;;;;;;21.00;1.00;;;;;;5048888;28;20394;-59
2023/05/11 10:50:55;;;;;;;5.43;4.03;;;21.10;1.00;;;;;;5035876;28;20436;-58
2023/05/11 10:53:39;;;;;;;3.50;3.20;;;21.20;1.00;;;;;;5035548;28;20095;-58
2023/05/11 10:56:29;;;;;;;5.13;4.43;;;21.20;1.00;;;;;;5035964;28;20040;-58
2023/05/11 10:59:07;;;;;;;7.45;4.82;;;21.30;1.00;;;;;;5023987;28;20072;-58
2023/05/11 11:01:40;;;;;;;5.95;4.57;;;21.40;1.00;;;;;;5035448;28;20147;-58
2023/05/11 11:04:11;;;;;;;4.55;4.15;;;21.60;1.00;;;;;;5033962;28;20030;-59
2023/05/11 11:06:39;;;;;;;5.78;4.43;;;21.70;1.00;;;;;;5035537;28;20439;-59
2023/05/11 11:09:12;;;;;;;7.15;6.32;;;21.80;1.00;;;;;;5030732;28;20494;-59
2023/05/11 11:11:45;;;;;;;6.05;5.50;;;21.90;1.00;;;;;;5033942;28;20052;-59
2023/05/11 11:14:12;;;;;;;7.03;5.07;;;22.00;1.00;;;;;;5033728;28;20009;-59
2023/05/11 11:16:39;;;;;;;5.07;4.63;;;21.90;1.00;;;;;;5029663;28;20042;-59
2023/05/11 11:19:29;;;;;;;6.45;5.82;;;21.70;1.00;;;;;;5035142;28;20427;-59
2023/05/11 11:21:56;;;;;;;5.38;4.88;;;21.60;1.00;;;;;;5033680;28;20033;-59
2023/05/11 11:24:39;;;;;;;6.00;5.22;;;21.70;1.00;;;;;;5034808;28;20109;-61
2023/05/11 11:27:07;;;;;;;5.53;4.95;;;21.90;1.00;;;;;;5034005;28;20487;-60
2023/05/11 11:29:37;;;;;;;6.53;5.38;;;22.00;1.00;;;;;;5034892;28;20036;-60
2023/05/11 11:32:23;;;;;;;6.97;5.35;;;22.10;1.00;;;;;;5034252;28;20064;-59
2023/05/11 11:34:50;;;;;;;8.02;5.90;;;22.00;1.00;;;;;;5034760;28;20026;-59
2023/05/11 11:37:17;;;;;;;23.45;12.73;;;22.10;1.00;;;;;;5021559;28;20053;-60
2023/05/11 11:39:43;;;;;;;19.17;10.18;;;22.10;1.00;;;;;;5034457;28;20545;-60
2023/05/11 11:42:14;;;;;;;16.67;10.55;;;22.10;1.00;;;;;;5034521;28;20053;-60
2023/05/11 11:44:41;;;;;;;7.03;5.65;;;21.90;1.00;;;;;;5034450;28;20018;-60
2023/05/11 11:47:19;;;;;;;5.35;4.70;;;21.80;1.00;;;;;;5043845;28;20075;-60
2023/05/11 11:49:47;;;;;;;4.60;4.10;;;21.70;1.00;;;;;;5037504;28;20101;-60
2023/05/11 11:52:28;;;;;;;4.13;3.72;;;21.80;1.00;;;;;;5033285;28;20025;-60
2023/05/11 11:55:00;;;;;;;4.72;4.32;;;21.90;1.00;;;;;;5034730;28;20076;-60
2023/05/11 11:57:31;;;;;;;5.28;3.88;;;21.70;1.00;;;;;;5034472;28;20052;-60
2023/05/11 12:00:09;;;;;;;5.80;5.20;;;21.60;1.00;;;;;;5034506;28;20021;-60
2023/05/11 12:02:42;;;;;;;4.22;3.92;;;21.50;1.00;;;;;;5034503;28;20037;-58
2023/05/11 12:05:21;;;;;;;3.33;3.03;;;21.80;1.00;;;;;;5034239;28;20029;-59
2023/05/11 12:07:51;;;;;;;4.60;3.67;;;22.60;1.00;;;;;;5033221;28;20025;-59
2023/05/11 12:10:19;;;;;;;4.00;3.60;;;23.10;1.00;;;;;;5034061;28;20041;-59
2023/05/11 12:12:46;;;;;;;3.67;3.40;;;23.90;1.00;;;;;;5032812;28;20036;-60
2023/05/11 12:15:30;;;;;;;4.18;3.88;;;23.30;1.00;;;;;;5034206;28;20029;-61
2023/05/11 12:17:55;;;;;;;3.63;3.33;;;23.10;1.00;;;;;;5032781;28;20029;-60
2023/05/11 12:20:22;;;;;;;3.72;3.42;;;23.10;1.00;;;;;;5031274;28;20069;-60
2023/05/11 12:22:49;;;;;;;3.40;3.13;;;23.90;1.00;;;;;;5032482;28;20491;-59
2023/05/11 12:25:18;;;;;;;3.25;2.83;;;25.00;1.00;;;;;;5030912;28;20037;-59
2023/05/11 12:28:02;;;;;;;2.72;2.50;;;24.20;1.00;;;;;;5030405;28;20071;-59
2023/05/11 12:30:29;;;;;;;2.63;2.42;;;23.90;1.00;;;;;;5030991;28;20023;-59
2023/05/11 12:32:55;;;;;;;2.55;2.33;;;26.00;1.00;;;;;;5032433;28;20025;-60
2023/05/11 12:35:28;;;;;;;2.63;2.42;;;26.80;1.00;;;;;;5027602;28;20076;-59
2023/05/11 12:37:55;;;;;;;2.85;2.50;;;26.50;99.90;;;;;;5033014;28;20029;-60
2023/05/11 12:40:20;;;;;;;5.88;2.58;;;26.00;1.00;;;;;;5031820;28;20108;-60
2023/05/11 12:42:54;;;;;;;3.38;2.33;;;25.70;1.00;;;;;;5033763;28;20057;-60
2023/05/11 12:45:22;;;;;;;2.30;1.95;;;25.30;1.00;;;;;;5031284;28;20037;-60
2023/05/11 12:47:48;;;;;;;2.15;2.05;;;26.30;1.00;;;;;;5047132;28;20363;-60
2023/05/11 12:50:15;;;;;;;3.40;2.10;;;25.60;1.00;;;;;;5032800;28;20033;-61
2023/05/11 12:52:41;;;;;;;2.10;2.00;;;24.90;1.00;;;;;;5033442;28;20566;-59
2023/05/11 12:55:08;;;;;;;2.45;1.73;;;24.10;1.00;;;;;;5030400;28;20096;-60
2023/05/11 12:57:34;;;;;;;2.50;2.30;;;23.60;1.00;;;;;;5023515;28;20431;-59
2023/05/11 13:00:10;;;;;;;1.83;1.73;;;23.30;1.00;;;;;;5029756;28;20108;-60